Terminal Aerodrome Forecast
Issued by NWS

Home | Current Version | Previous Version | Text Only | Print | Product List | Glossary On
Versions: 1 2 3 4 5 6 7 8 9 10 11 12
000
FTUS45 KRIW 120500
TAFLND
TAF
KLND 120523Z 1206/1306 VRB05KT P6SM SCT110 SCT200
     FM122000 04006KT P6SM VCSH SCT070 BKN110
     FM130400 25006KT P6SM SCT110=

USA.gov is the U.S. government's official web portal to all federal, state and local government web resources and services.